Time;durP1;ratioP1;P1;durP2;ratioP2;P2;SDS_P1;SDS_P2;PMS_P1;PMS_P2;Temp;Humidity;BMP_temperature;BMP_pressure;BME280_temperature;BME280_humidity;BME280_pressure;Samples;Min_cycle;Max_cycle;Signal;HPM_P1;HPM_P2
2023/04/06 00:01:19;;;;;;;16.77;10.68;;;;;;;4.40;70.41;99836.69;5104936;28;20028;-45
2023/04/06 00:03:44;;;;;;;14.15;9.98;;;;;;;4.27;70.88;99836.56;5107647;28;20028;-45
2023/04/06 00:06:10;;;;;;;16.08;10.00;;;;;;;4.23;70.70;99830.81;5108304;28;20049;-43
2023/04/06 00:08:35;;;;;;;15.73;9.93;;;;;;;4.34;70.35;99820.78;5108324;28;20023;-42
2023/04/06 00:11:00;;;;;;;13.85;9.55;;;;;;;4.20;71.56;99819.78;5108160;28;20024;-42
2023/04/06 00:13:26;;;;;;;14.15;9.10;;;;;;;4.19;71.43;99807.63;5108009;28;20492;-42
2023/04/06 00:15:51;;;;;;;14.23;8.75;;;;;;;4.07;72.52;99798.53;5108149;28;20718;-42
2023/04/06 00:18:17;;;;;;;13.45;9.35;;;;;;;4.17;71.45;99796.41;5107979;28;20031;-46
2023/04/06 00:20:42;;;;;;;13.52;9.02;;;;;;;4.18;71.89;99801.50;5108022;28;20028;-43
2023/04/06 00:23:08;;;;;;;12.65;8.40;;;;;;;4.14;71.90;99800.22;5108001;28;20030;-46
2023/04/06 00:25:33;;;;;;;12.30;8.52;;;;;;;4.05;70.67;99768.84;5108141;28;20028;-42
2023/04/06 00:27:59;;;;;;;13.30;8.45;;;;;;;4.15;70.64;99790.50;5108448;28;20027;-47
2023/04/06 00:30:24;;;;;;;15.85;8.23;;;;;;;4.03;70.75;99788.31;5108448;28;20023;-43
2023/04/06 00:32:49;;;;;;;11.23;7.35;;;;;;;3.91;70.26;99784.50;5107584;28;20110;-44
2023/04/06 00:35:15;;;;;;;13.85;9.30;;;;;;;3.81;70.85;99791.88;5107223;28;20023;-44
2023/04/06 00:37:41;;;;;;;12.13;7.95;;;;;;;3.74;70.69;99781.22;5107758;28;20024;-42
2023/04/06 00:40:07;;;;;;;14.13;8.38;;;;;;;3.57;70.69;99785.84;5107712;28;20024;-42
2023/04/06 00:42:32;;;;;;;13.50;8.05;;;;;;;3.47;70.93;99772.09;5107990;28;20415;-42
2023/04/06 00:44:59;;;;;;;14.88;8.93;;;;;;;3.53;71.13;99787.19;5106165;28;20024;-42
2023/04/06 00:47:25;;;;;;;13.52;8.38;;;;;;;3.57;71.65;99788.47;5107545;28;20015;-41
2023/04/06 00:49:52;;;;;;;11.77;7.93;;;;;;;3.53;71.04;99796.94;5107493;28;20055;-43
2023/04/06 00:52:18;;;;;;;12.68;7.68;;;;;;;3.53;70.90;99799.56;5107083;28;20836;-44
2023/04/06 00:54:43;;;;;;;14.48;8.68;;;;;;;3.58;71.54;99795.41;5107443;28;20118;-41
2023/04/06 00:57:10;;;;;;;15.38;8.40;;;;;;;3.53;70.50;99797.75;5107472;28;20035;-41
2023/04/06 00:59:36;;;;;;;12.75;8.02;;;;;;;3.46;70.72;99794.19;5107979;28;20034;-43
2023/04/06 01:02:01;;;;;;;13.02;8.60;;;;;;;3.42;71.30;99801.63;5107009;28;20024;-47
2023/04/06 01:04:27;;;;;;;13.07;8.57;;;;;;;3.42;71.70;99795.56;5107771;28;20058;-44
2023/04/06 01:06:53;;;;;;;11.60;8.25;;;;;;;3.45;69.81;99779.38;5106933;28;20108;-43
2023/04/06 01:09:18;;;;;;;13.20;8.68;;;;;;;3.43;71.55;99791.91;5107204;28;20051;-43
2023/04/06 01:11:44;;;;;;;11.43;7.65;;;;;;;3.60;70.55;99796.03;5107361;28;20107;-41
2023/04/06 01:14:10;;;;;;;53.78;30.05;;;;;;;3.56;70.89;99794.75;5107081;28;20020;-41
2023/04/06 01:16:36;;;;;;;17.88;13.88;;;;;;;3.43;71.28;99797.19;5107055;28;20039;-41
2023/04/06 01:19:10;;;;;;;14.27;10.23;;;;;;;3.40;73.16;99784.38;5106717;28;20028;-44
2023/04/06 01:21:37;;;;;;;13.32;8.80;;;;;;;3.32;73.25;99789.72;5107327;28;20024;-41
2023/04/06 01:24:02;;;;;;;14.30;8.68;;;;;;;3.29;73.57;99776.88;5107061;28;20027;-42
2023/04/06 01:26:29;;;;;;;13.25;8.82;;;;;;;3.07;75.07;99766.22;5107572;28;20028;-44
2023/04/06 01:28:55;;;;;;;13.85;9.73;;;;;;;3.28;74.99;99767.34;5106900;28;20540;-40
2023/04/06 01:31:21;;;;;;;15.10;9.63;;;;;;;3.26;73.38;99764.06;5106892;27;20030;-43
2023/04/06 01:33:46;;;;;;;15.13;9.32;;;;;;;2.86;74.62;99766.03;5106879;28;20027;-41
2023/04/06 01:36:12;;;;;;;15.82;10.50;;;;;;;2.99;73.35;99768.91;5106749;28;20031;-41
2023/04/06 01:38:37;;;;;;;14.60;9.13;;;;;;;2.85;73.98;99767.03;5106656;28;20020;-41
2023/04/06 01:41:03;;;;;;;13.73;9.15;;;;;;;2.93;74.68;99764.34;5106476;28;20028;-41
2023/04/06 01:43:28;;;;;;;14.90;9.82;;;;;;;2.65;77.07;99767.50;5107123;28;20114;-42
2023/04/06 01:45:54;;;;;;;15.02;9.32;;;;;;;2.58;78.22;99767.38;5106625;28;20066;-42
2023/04/06 01:48:19;;;;;;;13.85;8.77;;;;;;;2.51;79.67;99771.69;5106436;28;20476;-42
2023/04/06 01:50:45;;;;;;;15.02;9.95;;;;;;;2.58;78.61;99771.81;5106643;27;20027;-42
2023/04/06 01:53:10;;;;;;;13.13;9.23;;;;;;;2.77;77.50;99781.88;5106351;28;20020;-44
2023/04/06 01:55:36;;;;;;;13.50;8.73;;;;;;;2.63;79.72;99769.47;5106873;28;20027;-42
2023/04/06 01:58:01;;;;;;;15.30;9.57;;;;;;;2.71;78.92;99777.31;5106930;28;20019;-42
2023/04/06 02:00:27;;;;;;;18.58;11.38;;;;;;;2.84;76.94;99775.91;5107301;28;20489;-42
2023/04/06 02:02:52;;;;;;;16.13;10.30;;;;;;;2.86;76.30;99784.47;5106268;28;20103;-41
2023/04/06 02:05:19;;;;;;;15.05;9.73;;;;;;;2.94;75.39;99776.50;5106412;28;20057;-44
2023/04/06 02:07:44;;;;;;;15.68;9.77;;;;;;;3.10;75.64;99786.09;5106199;27;20031;-41
2023/04/06 02:10:14;;;;;;;13.65;8.68;;;;;;;3.16;73.87;99765.13;5105906;28;20430;-43
2023/04/06 02:12:39;;;;;;;14.63;9.30;;;;;;;3.16;75.11;99774.84;5106007;28;20542;-41
2023/04/06 02:15:05;;;;;;;14.68;9.75;;;;;;;3.03;75.29;99775.47;5105840;28;20028;-42
2023/04/06 02:17:31;;;;;;;15.15;9.68;;;;;;;3.07;75.65;99771.47;5106017;28;20081;-41
2023/04/06 02:19:56;;;;;;;14.40;8.55;;;;;;;3.15;76.16;99770.59;5106029;28;20455;-41
2023/04/06 02:22:21;;;;;;;15.35;9.95;;;;;;;3.07;77.77;99771.47;5106032;28;20407;-42
2023/04/06 02:24:47;;;;;;;13.23;9.38;;;;;;;2.99;77.06;99766.28;5105449;28;20027;-41
2023/04/06 02:27:14;;;;;;;16.30;9.93;;;;;;;3.08;75.55;99761.75;5105969;28;20084;-42
2023/04/06 02:29:40;;;;;;;14.70;9.10;;;;;;;2.94;75.73;99766.81;5105347;28;20467;-43
2023/04/06 02:32:06;;;;;;;17.77;9.90;;;;;;;2.95;75.79;99767.63;5106186;28;20560;-42
2023/04/06 02:34:31;;;;;;;14.48;9.80;;;;;;;2.79;76.74;99752.75;5106034;28;20502;-41
2023/04/06 02:36:57;;;;;;;14.80;10.02;;;;;;;2.86;76.88;99769.50;5105684;28;20023;-42
2023/04/06 02:39:22;;;;;;;16.27;10.20;;;;;;;3.00;76.61;99766.09;5105856;28;20419;-41
2023/04/06 02:41:48;;;;;;;14.75;9.48;;;;;;;2.90;77.58;99767.31;5105403;28;20024;-41
2023/04/06 02:44:13;;;;;;;15.52;10.20;;;;;;;2.88;77.68;99767.50;5105492;28;20019;-43
2023/04/06 02:46:39;;;;;;;15.60;9.52;;;;;;;2.81;77.59;99774.47;5105694;28;20028;-41
2023/04/06 02:49:05;;;;;;;14.68;9.43;;;;;;;2.67;78.48;99773.41;5106016;28;20066;-42
2023/04/06 02:51:30;;;;;;;14.13;9.70;;;;;;;2.70;77.74;99770.44;5105577;28;20420;-40
2023/04/06 02:53:56;;;;;;;13.80;9.02;;;;;;;2.68;77.18;99772.41;5106290;28;20058;-43
2023/04/06 02:56:21;;;;;;;15.48;9.60;;;;;;;2.58;77.39;99750.78;5105796;28;20024;-47
2023/04/06 02:58:47;;;;;;;16.08;10.38;;;;;;;2.70;77.63;99765.16;5105687;28;20031;-44
2023/04/06 03:01:12;;;;;;;16.10;9.73;;;;;;;2.31;79.00;99766.06;5105414;28;20034;-43
2023/04/06 03:03:38;;;;;;;18.60;9.95;;;;;;;2.16;79.21;99758.06;5105302;28;20414;-45
2023/04/06 03:06:04;;;;;;;15.07;9.80;;;;;;;2.29;80.08;99762.78;5105809;28;20469;-44
2023/04/06 03:08:30;;;;;;;14.38;9.30;;;;;;;2.54;77.47;99762.63;5105431;28;20027;-44
2023/04/06 03:10:55;;;;;;;14.23;9.73;;;;;;;2.68;74.36;99755.81;5105650;28;20043;-42
2023/04/06 03:13:21;;;;;;;16.65;9.63;;;;;;;2.62;75.69;99767.84;5105018;28;20066;-45
2023/04/06 03:15:46;;;;;;;14.63;9.75;;;;;;;2.62;75.50;99767.84;5105560;28;20138;-43
2023/04/06 03:18:12;;;;;;;17.92;10.18;;;;;;;2.68;75.39;99777.69;5105758;28;20027;-42
2023/04/06 03:20:37;;;;;;;15.00;9.40;;;;;;;2.22;78.08;99746.84;5105499;28;20057;-42
2023/04/06 03:23:03;;;;;;;16.90;10.57;;;;;;;2.42;78.29;99764.84;5105459;28;20110;-43
2023/04/06 03:25:29;;;;;;;16.95;9.98;;;;;;;2.33;78.51;99764.06;5105155;28;20063;-42
2023/04/06 03:27:55;;;;;;;16.30;9.50;;;;;;;2.42;78.80;99763.03;5105546;28;20028;-45
2023/04/06 03:30:21;;;;;;;17.27;10.25;;;;;;;2.42;79.86;99763.03;5103972;28;20035;-44
2023/04/06 03:32:46;;;;;;;15.73;10.10;;;;;;;2.58;77.86;99756.84;5105401;28;20024;-51
2023/04/06 03:35:11;;;;;;;25.38;18.08;;;;;;;2.35;79.03;99761.25;5105490;28;20027;-44
2023/04/06 03:37:37;;;;;;;17.27;11.57;;;;;;;2.40;78.52;99764.19;5106340;28;20024;-42
2023/04/06 03:40:04;;;;;;;19.58;12.05;;;;;;;2.22;79.56;99756.56;5108869;28;20023;-42
2023/04/06 03:42:29;;;;;;;18.27;12.52;;;;;;;1.98;80.97;99760.94;5109221;28;20035;-42
2023/04/06 03:44:55;;;;;;;26.67;15.55;;;;;;;2.05;81.60;99761.06;5109202;28;20024;-42
2023/04/06 03:47:20;;;;;;;27.65;16.05;;;;;;;2.12;80.96;99766.47;5108539;28;20054;-44
2023/04/06 03:49:45;;;;;;;22.98;14.23;;;;;;;1.78;82.66;99770.22;5109388;28;20024;-48
2023/04/06 03:52:11;;;;;;;23.67;13.45;;;;;;;1.70;82.62;99772.88;5109487;28;20028;-45
2023/04/06 03:54:37;;;;;;;19.10;11.77;;;;;;;1.54;85.81;99757.97;5109573;28;20142;-42
2023/04/06 03:57:02;;;;;;;18.40;11.43;;;;;;;1.73;84.99;99775.16;5109123;28;20020;-42
2023/04/06 03:59:28;;;;;;;17.52;11.52;;;;;;;1.79;83.67;99769.22;5109474;28;20035;-43
2023/04/06 04:01:53;;;;;;;24.08;12.15;;;;;;;1.65;86.08;99775.97;5109423;28;20092;-43
2023/04/06 04:04:19;;;;;;;18.02;11.55;;;;;;;1.59;86.29;99767.00;5109386;28;20028;-43
2023/04/06 04:06:44;;;;;;;21.05;12.45;;;;;;;1.58;85.79;99769.78;5108902;28;20055;-43
2023/04/06 04:09:10;;;;;;;21.02;12.85;;;;;;;1.59;85.77;99777.50;5108575;28;20024;-43
2023/04/06 04:11:35;;;;;;;20.65;12.93;;;;;;;2.01;85.20;99765.03;5108669;28;20031;-41
2023/04/06 04:14:01;;;;;;;20.70;12.75;;;;;;;2.18;83.70;99768.41;5108121;28;20031;-47
2023/04/06 04:16:26;;;;;;;17.70;10.55;;;;;;;2.48;80.89;99773.88;5108684;28;20181;-46
2023/04/06 04:18:52;;;;;;;16.38;10.00;;;;;;;2.53;79.16;99774.16;5108218;28;20032;-43
2023/04/06 04:21:17;;;;;;;16.42;10.30;;;;;;;2.60;78.33;99767.22;5108241;28;20032;-43
2023/04/06 04:23:42;;;;;;;17.45;10.90;;;;;;;2.71;78.60;99779.16;5108221;28;20031;-43
2023/04/06 04:26:08;;;;;;;16.20;10.73;;;;;;;2.59;78.70;99784.78;5108270;28;20067;-43
2023/04/06 04:28:34;;;;;;;15.65;9.68;;;;;;;2.68;78.16;99782.94;5107993;28;20065;-45
2023/04/06 04:30:59;;;;;;;18.00;11.82;;;;;;;2.72;78.77;99781.59;5108159;28;20044;-43
2023/04/06 04:33:25;;;;;;;15.93;10.80;;;;;;;3.01;76.63;99788.81;5108015;28;20126;-44
2023/04/06 04:35:50;;;;;;;16.63;11.10;;;;;;;2.95;77.59;99783.44;5107770;28;20046;-44
2023/04/06 04:38:15;;;;;;;17.25;11.00;;;;;;;3.20;76.09;99784.84;5106988;28;20015;-43
2023/04/06 04:40:41;;;;;;;17.60;11.45;;;;;;;3.20;75.38;99776.94;5107423;28;20012;-43
2023/04/06 04:43:06;;;;;;;17.48;10.73;;;;;;;3.24;75.62;99789.78;5107782;28;20081;-43
2023/04/06 04:45:32;;;;;;;17.55;10.90;;;;;;;3.17;74.42;99777.31;5107233;28;20445;-43
2023/04/06 04:47:57;;;;;;;15.60;10.00;;;;;;;3.13;75.28;99791.03;5107588;28;20049;-42
2023/04/06 04:50:23;;;;;;;18.95;10.07;;;;;;;3.13;75.42;99797.13;5107250;27;20020;-43
2023/04/06 04:52:48;;;;;;;19.08;11.48;;;;;;;3.30;74.65;99794.34;5106884;28;20024;-44
2023/04/06 04:55:14;;;;;;;18.90;10.77;;;;;;;3.29;75.47;99795.31;5107590;28;20554;-42
2023/04/06 04:57:39;;;;;;;16.25;10.43;;;;;;;3.42;74.49;99796.38;5107394;28;20026;-47
2023/04/06 05:00:06;;;;;;;16.55;9.75;;;;;;;3.47;74.69;99792.38;5106256;28;20419;-41
2023/04/06 05:02:31;;;;;;;16.15;9.52;;;;;;;3.56;73.93;99801.84;5106509;28;20415;-42
2023/04/06 05:04:56;;;;;;;17.27;10.80;;;;;;;3.49;75.34;99796.47;5106942;28;20039;-42
2023/04/06 05:07:22;;;;;;;18.30;11.13;;;;;;;3.84;75.46;99794.13;5106896;28;20019;-42
2023/04/06 05:09:48;;;;;;;16.10;11.18;;;;;;;3.96;74.16;99792.69;5106466;28;20028;-45
2023/04/06 05:12:13;;;;;;;18.60;11.88;;;;;;;4.14;72.50;99802.84;5106503;28;20019;-45
2023/04/06 05:14:39;;;;;;;17.63;10.90;;;;;;;4.36;72.72;99787.91;5106623;28;20030;-46
2023/04/06 05:17:04;;;;;;;22.88;15.85;;;;;;;4.46;71.47;99784.19;5106638;28;20016;-43
2023/04/06 05:19:30;;;;;;;22.67;16.73;;;;;;;4.36;73.45;99772.06;5106821;28;20030;-43
2023/04/06 05:21:55;;;;;;;17.55;10.93;;;;;;;4.71;73.39;99801.31;5106694;28;20388;-42
2023/04/06 05:24:21;;;;;;;17.85;11.57;;;;;;;4.70;70.63;99793.56;5106318;28;20035;-43
2023/04/06 05:26:47;;;;;;;16.30;10.07;;;;;;;4.51;71.00;99781.78;5106151;28;20024;-43
2023/04/06 05:29:13;;;;;;;17.73;10.95;;;;;;;4.37;72.12;99779.00;5105925;28;20140;-42
2023/04/06 05:31:39;;;;;;;17.10;11.38;;;;;;;4.39;72.92;99777.00;5106594;27;21240;-43
2023/04/06 05:34:04;;;;;;;18.83;11.98;;;;;;;4.41;72.10;99774.97;5104867;28;20023;-43
2023/04/06 05:36:31;;;;;;;17.88;10.82;;;;;;;4.45;73.53;99778.06;5106245;28;20586;-48
2023/04/06 05:38:57;;;;;;;16.73;10.02;;;;;;;4.62;71.30;99783.94;5102828;28;20039;-46
2023/04/06 05:41:23;;;;;;;18.00;11.57;;;;;;;4.64;72.39;99784.56;5106141;28;20019;-43
2023/04/06 05:43:49;;;;;;;16.13;10.10;;;;;;;4.65;70.85;99775.63;5106657;28;20023;-45
2023/04/06 05:46:14;;;;;;;15.88;10.13;;;;;;;4.59;70.99;99776.38;5106197;28;20104;-46
2023/04/06 05:48:40;;;;;;;14.90;9.48;;;;;;;4.89;69.16;99771.00;5106427;28;20015;-40
2023/04/06 05:51:06;;;;;;;18.42;11.93;;;;;;;5.10;68.73;99772.81;5106335;28;20411;-42
2023/04/06 05:53:32;;;;;;;14.23;8.73;;;;;;;5.14;67.56;99777.53;5106316;28;20059;-44
2023/04/06 05:56:01;;;;;;;15.75;10.27;;;;;;;5.09;69.12;99772.00;5106189;28;20563;-43
2023/04/06 05:58:26;;;;;;;18.42;12.52;;;;;;;5.16;69.45;99767.56;5106115;28;20702;-42
2023/04/06 06:00:59;;;;;;;14.93;9.77;;;;;;;5.17;68.66;99768.38;5104722;28;20028;-42
2023/04/06 06:03:25;;;;;;;14.02;9.52;;;;;;;5.59;67.29;99772.78;5103937;28;20526;-45
2023/04/06 06:05:50;;;;;;;14.93;9.32;;;;;;;5.28;66.74;99753.84;5105400;28;20150;-42
2023/04/06 06:08:16;;;;;;;15.40;9.60;;;;;;;5.40;66.99;99762.88;5105681;28;20498;-43
2023/04/06 06:10:41;;;;;;;13.02;9.05;;;;;;;5.33;67.71;99762.84;5106048;28;20027;-42
2023/04/06 06:13:07;;;;;;;12.52;8.13;;;;;;;5.40;67.15;99754.94;5105435;28;20023;-44
2023/04/06 06:15:33;;;;;;;15.20;9.88;;;;;;;5.38;67.48;99738.47;5105501;28;20027;-44
2023/04/06 06:17:58;;;;;;;16.88;10.40;;;;;;;5.66;67.45;99745.53;5105602;28;20007;-40
2023/04/06 06:20:24;;;;;;;16.67;10.68;;;;;;;5.85;68.00;99752.78;5105710;28;20106;-44
2023/04/06 06:22:50;;;;;;;14.90;9.55;;;;;;;5.81;66.33;99755.00;5104687;28;20058;-42
2023/04/06 06:25:15;;;;;;;16.05;10.13;;;;;;;6.01;67.01;99747.19;5104668;28;20047;-47
2023/04/06 06:27:41;;;;;;;16.20;9.05;;;;;;;6.18;66.59;99755.59;5105043;28;20019;-40
2023/04/06 06:30:07;;;;;;;18.67;10.43;;;;;;;6.10;66.79;99757.63;5104801;28;20023;-41
2023/04/06 06:32:32;;;;;;;23.25;12.27;;;;;;;6.04;66.64;99749.44;5105009;28;20411;-42
2023/04/06 06:34:58;;;;;;;16.17;9.32;;;;;;;6.12;65.34;99745.81;5105284;28;20027;-41
2023/04/06 06:37:23;;;;;;;13.15;7.88;;;;;;;6.11;64.05;99748.66;5105159;28;20713;-42
2023/04/06 06:39:49;;;;;;;11.77;7.18;;;;;;;5.98;65.29;99749.41;5104943;28;20023;-43
2023/04/06 06:42:14;;;;;;;12.77;8.13;;;;;;;5.89;64.80;99751.38;5104898;28;20032;-42
2023/04/06 06:44:40;;;;;;;11.93;7.35;;;;;;;5.99;65.89;99745.78;5102057;28;20024;-43
2023/04/06 06:47:05;;;;;;;15.48;8.43;;;;;;;6.04;64.85;99740.69;5105432;28;20024;-41
2023/04/06 06:49:30;;;;;;;15.43;9.65;;;;;;;5.96;64.81;99731.06;5107944;28;20016;-41
2023/04/06 06:51:56;;;;;;;13.60;8.70;;;;;;;6.28;64.24;99749.94;5106291;27;20031;-41
2023/04/06 06:54:21;;;;;;;14.18;8.35;;;;;;;6.22;65.62;99740.16;5104631;28;20081;-41
2023/04/06 06:56:47;;;;;;;13.50;8.20;;;;;;;6.51;65.49;99746.16;5105256;28;20131;-42
2023/04/06 06:59:12;;;;;;;13.60;8.25;;;;;;;6.58;64.74;99750.44;5104882;28;20118;-41
2023/04/06 07:01:38;;;;;;;11.82;7.93;;;;;;;6.47;63.76;99755.50;5105152;28;20497;-43
2023/04/06 07:04:03;;;;;;;14.18;8.82;;;;;;;6.62;65.29;99756.19;5105085;28;20072;-43
2023/04/06 07:06:29;;;;;;;13.70;8.63;;;;;;;6.64;63.41;99754.94;5104828;28;20707;-46
2023/04/06 07:08:54;;;;;;;13.15;8.60;;;;;;;6.93;64.79;99760.91;5105066;28;20032;-40
2023/04/06 07:11:20;;;;;;;11.45;7.55;;;;;;;7.03;63.06;99752.56;5104958;28;20851;-43
2023/04/06 07:13:46;;;;;;;12.60;7.88;;;;;;;7.05;62.37;99761.13;5108730;28;20024;-42
2023/04/06 07:16:11;;;;;;;12.65;8.10;;;;;;;7.13;62.38;99760.94;5108767;28;20043;-43
2023/04/06 07:18:37;;;;;;;14.85;8.05;;;;;;;7.14;61.80;99743.97;5108888;28;20027;-41
2023/04/06 07:21:02;;;;;;;12.82;8.02;;;;;;;7.14;61.84;99765.19;5108811;28;20407;-43
2023/04/06 07:23:28;;;;;;;10.88;7.55;;;;;;;7.34;62.78;99754.59;5108475;28;20968;-41
2023/04/06 07:25:54;;;;;;;11.43;7.90;;;;;;;7.65;60.60;99769.84;5108796;28;20407;-42
2023/04/06 07:28:20;;;;;;;14.30;8.02;;;;;;;7.77;61.12;99766.56;5109797;28;20411;-43
2023/04/06 07:30:45;;;;;;;12.43;8.05;;;;;;;8.05;63.44;99753.81;5110225;28;20506;-41
2023/04/06 07:33:11;;;;;;;11.60;7.35;;;;;;;8.24;60.67;99753.97;5109859;28;20028;-40
2023/04/06 07:35:37;;;;;;;12.45;7.53;;;;;;;8.10;60.08;99747.06;5109954;28;20047;-44
2023/04/06 07:38:03;;;;;;;13.15;8.73;;;;;;;8.14;60.12;99754.41;5105605;28;20023;-39
2023/04/06 07:40:28;;;;;;;12.60;7.50;;;;;;;8.27;62.27;99758.84;5098662;27;20036;-40
2023/04/06 07:42:54;;;;;;;11.60;7.28;;;;;;;8.50;58.58;99769.00;5096782;27;20043;-43
2023/04/06 07:45:20;;;;;;;9.77;6.50;;;;;;;8.01;57.58;99755.28;5117748;27;20023;-39
2023/04/06 07:47:46;;;;;;;13.45;8.07;;;;;;;8.14;58.21;99764.22;5129444;27;20079;-48
2023/04/06 07:50:11;;;;;;;12.30;7.68;;;;;;;7.96;58.36;99754.25;5129581;27;20052;-41
2023/04/06 07:52:38;;;;;;;13.90;8.77;;;;;;;8.17;60.45;99751.34;5129797;27;20091;-53
2023/04/06 07:55:04;;;;;;;12.20;8.07;;;;;;;8.06;57.14;99751.97;5129660;27;20031;-40
2023/04/06 07:57:29;;;;;;;13.05;8.40;;;;;;;8.15;58.05;99748.06;5129747;27;20457;-41
2023/04/06 07:59:55;;;;;;;14.00;8.18;;;;;;;8.63;58.47;99747.66;5129914;27;20567;-40
2023/04/06 08:02:21;;;;;;;11.85;7.68;;;;;;;8.70;56.15;99752.09;5129543;27;20031;-39
2023/04/06 08:04:46;;;;;;;10.93;7.20;;;;;;;8.93;56.15;99754.19;5128995;27;20024;-41
2023/04/06 08:10:34;;;;;;;10.38;7.43;;;;;;;9.43;54.54;99751.56;5128306;27;20080;-41
2023/04/06 08:13:00;;;;;;;11.30;6.72;;;;;;;9.41;55.21;99742.97;5127994;27;20545;-40
2023/04/06 08:15:26;;;;;;;12.70;7.63;;;;;;;9.28;54.01;99749.22;5114373;27;20032;-41
2023/04/06 08:17:51;;;;;;;10.43;6.80;;;;;;;9.45;54.68;99744.97;5107308;28;20027;-42
2023/04/06 08:20:17;;;;;;;12.60;7.50;;;;;;;9.44;53.18;99750.53;5107403;28;20020;-41
2023/04/06 08:22:42;;;;;;;11.95;8.40;;;;;;;9.41;55.51;99737.66;5105576;27;20028;-40
2023/04/06 08:25:07;;;;;;;11.93;8.00;;;;;;;9.92;54.75;99738.34;5106054;28;20118;-43
2023/04/06 08:27:33;;;;;;;11.18;6.55;;;;;;;9.73;51.00;99734.88;5106388;28;20457;-41
2023/04/06 08:29:58;;;;;;;11.05;7.30;;;;;;;9.64;51.84;99752.97;5107825;28;20050;-41
2023/04/06 08:32:25;;;;;;;13.05;8.15;;;;;;;9.65;56.08;99726.13;5107657;28;20032;-40
2023/04/06 08:34:53;;;;;;;11.23;7.78;;;;;;;9.72;53.86;99717.28;5107391;28;20518;-40
2023/04/06 08:37:19;;;;;;;16.63;11.88;;;;;;;9.96;55.90;99721.69;5107616;28;20971;-41
2023/04/06 08:39:44;;;;;;;14.35;11.07;;;;;;;10.16;53.32;99718.00;5108100;28;20540;-43
2023/04/06 08:42:15;;;;;;;12.13;7.80;;;;;;;10.21;53.73;99707.47;5107537;28;20026;-40
2023/04/06 08:44:41;;;;;;;13.05;7.57;;;;;;;10.24;54.02;99705.16;5107709;28;20036;-40
2023/04/06 08:47:06;;;;;;;12.32;7.25;;;;;;;10.18;53.81;99705.25;5107042;28;20424;-41
2023/04/06 08:49:34;;;;;;;11.05;7.50;;;;;;;10.39;52.02;99715.44;5107924;28;20495;-39
2023/04/06 08:52:00;;;;;;;11.35;7.28;;;;;;;10.05;53.50;99706.22;5107590;28;20027;-39
2023/04/06 08:54:25;;;;;;;12.50;7.53;;;;;;;10.05;51.26;99699.06;5107144;28;20431;-41
2023/04/06 08:56:53;;;;;;;11.88;7.32;;;;;;;10.43;51.25;99703.28;5107178;27;20027;-41
2023/04/06 08:59:19;;;;;;;10.27;6.65;;;;;;;10.87;53.98;99700.41;5107659;28;20102;-40
2023/04/06 09:01:45;;;;;;;10.35;7.35;;;;;;;10.89;51.65;99697.47;5107334;28;20118;-44
2023/04/06 09:04:11;;;;;;;11.70;7.38;;;;;;;10.79;49.90;99701.53;5107264;27;20023;-40
2023/04/06 09:06:37;;;;;;;10.57;7.38;;;;;;;10.63;50.75;99700.34;5106023;28;20086;-42
2023/04/06 09:09:03;;;;;;;9.95;7.25;;;;;;;10.77;50.35;99692.97;5107696;27;20111;-42
2023/04/06 09:11:29;;;;;;;11.98;7.63;;;;;;;11.30;53.55;99695.78;5107153;28;20506;-41
2023/04/06 09:13:56;;;;;;;8.45;6.05;;;;;;;11.57;47.89;99712.94;5107117;28;20039;-39
2023/04/06 09:16:22;;;;;;;10.40;6.80;;;;;;;11.91;49.47;99696.31;5106658;28;20035;-41
2023/04/06 09:18:49;;;;;;;10.98;7.25;;;;;;;11.96;49.46;99694.53;5107329;28;20110;-40
2023/04/06 09:21:18;;;;;;;11.43;6.78;;;;;;;12.30;50.30;99677.78;5107361;28;20024;-40
2023/04/06 09:23:44;;;;;;;10.73;7.18;;;;;;;11.84;49.24;99693.75;5107111;28;20031;-39
2023/04/06 09:26:12;;;;;;;10.63;6.70;;;;;;;11.64;47.43;99681.56;5106951;27;20039;-44
2023/04/06 09:28:49;;;;;;;9.07;6.50;;;;;;;12.03;49.34;99663.16;5107145;28;20042;-40
2023/04/06 09:31:16;;;;;;;10.68;6.70;;;;;;;11.88;49.48;99681.53;5106733;28;20074;-40
2023/04/06 09:33:45;;;;;;;10.68;6.60;;;;;;;11.68;48.66;99681.13;5106803;28;20173;-41
2023/04/06 09:36:11;;;;;;;10.40;7.68;;;;;;;11.90;50.31;99679.47;5105330;28;20028;-43
2023/04/06 09:38:38;;;;;;;10.35;6.55;;;;;;;11.97;46.53;99682.81;5102588;28;20124;-41
2023/04/06 09:41:04;;;;;;;10.50;6.60;;;;;;;12.20;47.97;99667.75;5091004;28;20146;-43
2023/04/06 09:43:30;;;;;;;10.57;6.50;;;;;;;11.92;47.95;99672.03;5105185;28;20027;-43
2023/04/06 09:45:57;;;;;;;10.13;6.70;;;;;;;12.21;46.16;99672.03;5106267;28;20028;-40
2023/04/06 09:48:24;;;;;;;9.35;6.30;;;;;;;12.63;47.72;99666.38;5106608;28;20547;-40
2023/04/06 09:50:58;;;;;;;9.25;5.93;;;;;;;12.90;46.17;99671.06;5105812;28;20042;-40
2023/04/06 09:53:26;;;;;;;17.08;13.73;;;;;;;12.98;44.20;99668.00;5106234;27;20124;-42
2023/04/06 09:55:57;;;;;;;11.00;8.32;;;;;;;13.53;43.81;99664.50;5106647;28;20028;-42
2023/04/06 09:58:26;;;;;;;10.05;6.85;;;;;;;13.49;46.78;99666.06;5107235;28;20028;-41
2023/04/06 10:00:51;;;;;;;;;;;;;;;12.97;45.27;99652.97;5105675;28;20031;-42
2023/04/06 10:03:33;;;;;;;8.15;5.53;;;;;;;12.98;44.51;99658.09;5106122;28;19915;-43
2023/04/06 10:06:05;;;;;;;8.82;5.80;;;;;;;13.00;46.11;99652.50;5102612;28;20043;-40
2023/04/06 10:08:34;;;;;;;9.48;6.47;;;;;;;13.29;45.39;99647.84;5106560;28;20023;-41
2023/04/06 10:11:00;;;;;;;8.55;6.05;;;;;;;13.15;46.30;99674.13;5105966;27;20039;-41
2023/04/06 10:13:26;;;;;;;8.90;5.80;;;;;;;12.90;45.66;99660.38;5105887;28;20019;-41
2023/04/06 10:15:53;;;;;;;9.15;5.85;;;;;;;13.12;44.62;99645.19;5106227;27;20028;-40
2023/04/06 10:18:20;;;;;;;8.27;5.68;;;;;;;13.45;41.82;99657.72;5104834;28;20058;-41
2023/04/06 10:20:55;;;;;;;9.85;6.05;;;;;;;13.49;44.60;99647.31;5106071;28;20031;-44
2023/04/06 10:23:39;;;;;;;8.52;6.32;;;;;;;13.69;44.02;99640.56;5105748;28;20027;-43
2023/04/06 10:26:05;;;;;;;7.47;5.78;;;;;;;13.95;41.47;99615.69;5106515;27;20031;-41
2023/04/06 10:28:35;;;;;;;8.20;5.97;;;;;;;14.51;43.02;99636.09;5104993;28;20782;-40
2023/04/06 10:31:05;;;;;;;8.38;5.85;;;;;;;14.62;42.03;99637.81;5096172;28;20543;-40
2023/04/06 10:33:30;;;;;;;9.95;6.05;;;;;;;14.94;41.61;99637.78;5105048;28;20102;-40
2023/04/06 10:35:56;;;;;;;8.15;5.70;;;;;;;14.72;39.51;99632.53;5104945;28;20111;-40
2023/04/06 10:38:33;;;;;;;11.48;9.98;;;;;;;15.04;42.13;99632.50;5105091;28;20403;-41
2023/04/06 10:41:05;;;;;;;8.90;6.80;;;;;;;15.31;40.09;99633.44;5104005;28;20028;-42
2023/04/06 10:43:35;;;;;;;9.00;6.13;;;;;;;14.95;42.04;99635.91;5103073;28;20051;-41
2023/04/06 10:46:00;;;;;;;9.90;6.25;;;;;;;14.71;41.68;99625.56;5104850;28;20027;-42
2023/04/06 10:48:39;;;;;;;7.95;5.25;;;;;;;14.66;40.69;99617.44;5105588;28;20027;-44
2023/04/06 10:51:10;;;;;;;7.93;5.57;;;;;;;15.05;38.90;99626.03;5105371;28;20024;-40
2023/04/06 10:53:35;;;;;;;9.27;5.13;;;;;;;15.08;39.40;99622.03;5103577;28;20020;-40
2023/04/06 10:56:03;;;;;;;8.60;6.15;;;;;;;15.27;37.45;99625.91;5104883;28;20793;-41
2023/04/06 10:58:29;;;;;;;7.63;5.30;;;;;;;15.70;38.81;99623.13;5105109;28;20713;-44
2023/04/06 11:00:55;;;;;;;9.40;5.68;;;;;;;15.96;41.54;99610.63;5105465;28;20098;-40
2023/04/06 11:03:21;;;;;;;8.02;5.55;;;;;;;16.19;38.12;99612.00;5105042;28;20106;-40
2023/04/06 11:05:51;;;;;;;8.43;5.95;;;;;;;15.92;38.12;99606.84;5104826;28;20031;-40
2023/04/06 11:08:31;;;;;;;8.57;5.97;;;;;;;16.28;38.71;99604.19;5105025;28;20774;-43
2023/04/06 11:11:08;;;;;;;7.90;5.78;;;;;;;16.25;38.74;99610.13;5103294;28;20099;-41
2023/04/06 11:13:41;;;;;;;9.60;6.43;;;;;;;16.19;36.68;99600.44;5102465;28;20080;-41
2023/04/06 11:16:06;;;;;;;7.70;5.32;;;;;;;16.16;34.97;99607.16;5105951;28;20032;-41
2023/04/06 11:18:32;;;;;;;7.10;4.82;;;;;;;16.24;36.05;99601.25;5105382;28;20037;-41
2023/04/06 11:20:57;;;;;;;8.45;5.93;;;;;;;16.24;36.48;99598.56;5105876;28;20464;-42
2023/04/06 11:23:26;;;;;;;7.65;5.38;;;;;;;17.02;36.91;99602.03;5105865;28;20024;-45
2023/04/06 11:25:52;;;;;;;55.70;47.17;;;;;;;17.27;35.04;99599.28;5106457;28;20488;-41
2023/04/06 11:28:19;;;;;;;10.80;7.90;;;;;;;17.54;32.04;99600.00;5105983;28;20035;-40
2023/04/06 11:30:45;;;;;;;9.82;7.90;;;;;;;17.70;33.87;99589.94;5105910;28;20554;-40